Time;durP1;ratioP1;P1;durP2;ratioP2;P2;SDS_P1;SDS_P2;PMS_P1;PMS_P2;Temp;Humidity;BMP_temperature;BMP_pressure;BME280_temperature;BME280_humidity;BME280_pressure;Samples;Min_cycle;Max_cycle;Signal;HPM_P1;HPM_P2
2022/03/16 00:05:58;;;;;;;23.80;12.07;;;11.60;76.30;;;;;;4993270;28;20169;-75
2022/03/16 00:08:27;;;;;;;21.65;12.07;;;11.60;76.30;;;;;;5008256;28;20535;-75
2022/03/16 00:10:53;;;;;;;23.02;12.02;;;11.60;76.30;;;;;;4995106;28;20026;-76
2022/03/16 00:13:18;;;;;;;20.92;12.23;;;11.60;76.30;;;;;;5009306;28;20031;-75
2022/03/16 00:15:44;;;;;;;26.55;12.32;;;11.50;76.30;;;;;;5009532;28;20019;-76
2022/03/16 00:18:12;;;;;;;21.17;11.50;;;11.60;76.30;;;;;;5009338;28;20046;-75
2022/03/16 00:20:37;;;;;;;22.27;11.60;;;11.60;76.30;;;;;;4994273;28;20033;-75
2022/03/16 00:23:03;;;;;;;21.70;11.70;;;11.60;76.20;;;;;;4992994;28;20435;-75
2022/03/16 00:25:28;;;;;;;21.75;11.85;;;11.60;76.30;;;;;;5009185;28;20022;-75
2022/03/16 00:27:54;;;;;;;23.65;11.48;;;11.60;76.30;;;;;;4993962;28;20061;-75
2022/03/16 00:30:19;;;;;;;19.65;12.05;;;11.60;76.40;;;;;;4992705;28;20294;-75
2022/03/16 00:32:45;;;;;;;21.55;11.88;;;11.60;76.40;;;;;;4992994;28;20376;-75
2022/03/16 00:35:10;;;;;;;20.65;11.82;;;11.50;76.30;;;;;;4993228;28;20411;-75
2022/03/16 00:37:36;;;;;;;24.60;11.88;;;11.60;76.40;;;;;;4993892;28;20097;-75
2022/03/16 00:40:01;;;;;;;18.92;11.95;;;11.60;76.30;;;;;;5009267;28;20034;-75
2022/03/16 00:42:27;;;;;;;19.40;11.77;;;11.60;76.30;;;;;;4992883;28;20022;-75
2022/03/16 00:44:52;;;;;;;38.75;12.70;;;11.60;76.30;;;;;;4992542;28;20030;-75
2022/03/16 00:47:18;;;;;;;51.35;13.57;;;11.60;76.30;;;;;;5008586;28;20023;-75
2022/03/16 00:49:43;;;;;;;37.65;12.77;;;11.50;76.20;;;;;;5008825;28;20027;-75
2022/03/16 00:52:09;;;;;;;33.15;13.18;;;11.50;76.10;;;;;;4993671;28;20022;-76
2022/03/16 00:54:35;;;;;;;22.67;12.05;;;11.60;76.20;;;;;;5008554;28;20492;-75
2022/03/16 00:57:01;;;;;;;24.23;12.07;;;11.60;76.70;;;;;;4992311;28;20038;-75
2022/03/16 00:59:26;;;;;;;27.80;12.63;;;11.50;76.00;;;;;;4992589;28;20037;-75
2022/03/16 01:01:52;;;;;;;23.38;11.63;;;11.50;76.00;;;;;;5008553;28;20058;-75
2022/03/16 01:04:17;;;;;;;28.13;12.15;;;11.50;75.90;;;;;;4992914;28;20097;-76
2022/03/16 01:06:43;;;;;;;82.40;14.57;;;11.50;75.90;;;;;;4993559;28;20080;-75
2022/03/16 01:09:08;;;;;;;36.67;12.55;;;11.50;76.10;;;;;;4993347;28;20049;-76
2022/03/16 01:11:34;;;;;;;36.95;12.63;;;11.60;76.00;;;;;;5008553;28;20109;-76
2022/03/16 01:14:00;;;;;;;25.88;12.57;;;11.50;75.80;;;;;;5007921;28;20472;-75
2022/03/16 01:16:25;;;;;;;23.25;11.63;;;11.50;75.80;;;;;;5008102;28;20377;-75
2022/03/16 01:18:51;;;;;;;25.73;11.80;;;11.60;75.80;;;;;;5008135;28;20083;-75
2022/03/16 01:21:16;;;;;;;42.20;12.98;;;11.50;75.80;;;;;;5008164;28;20053;-75
2022/03/16 01:23:42;;;;;;;36.88;12.10;;;11.50;75.80;;;;;;4992961;28;20376;-75
2022/03/16 01:26:07;;;;;;;31.88;11.57;;;11.50;75.80;;;;;;4993054;28;20061;-76
2022/03/16 01:28:33;;;;;;;46.78;12.60;;;11.50;75.80;;;;;;4991689;28;20077;-75
2022/03/16 01:31:01;;;;;;;34.42;12.55;;;11.60;75.80;;;;;;4993089;28;20035;-75
2022/03/16 01:33:26;;;;;;;29.58;12.55;;;11.50;75.80;;;;;;4991318;28;20022;-75
2022/03/16 01:35:52;;;;;;;35.47;13.32;;;11.60;75.80;;;;;;4997967;28;20537;-75
2022/03/16 01:38:18;;;;;;;38.13;13.27;;;11.60;75.80;;;;;;5007788;28;20038;-75
2022/03/16 01:40:43;;;;;;;31.92;12.10;;;11.60;75.80;;;;;;4992983;28;20030;-75
2022/03/16 01:43:09;;;;;;;35.97;13.40;;;11.60;75.80;;;;;;5008007;28;20439;-75
2022/03/16 01:45:34;;;;;;;64.00;14.25;;;11.50;75.70;;;;;;4991398;28;20053;-75
2022/03/16 01:48:00;;;;;;;35.30;12.77;;;11.60;76.00;;;;;;4992682;28;20060;-75
2022/03/16 01:50:25;;;;;;;41.25;13.23;;;11.50;75.80;;;;;;5008366;28;20030;-76
2022/03/16 01:52:51;;;;;;;36.67;12.52;;;11.50;75.80;;;;;;5007765;28;20114;-76
2022/03/16 01:55:16;;;;;;;31.10;12.68;;;11.60;75.70;;;;;;5008056;28;20408;-76
2022/03/16 01:57:47;;;;;;;24.67;12.82;;;11.50;75.60;;;;;;4991402;28;20117;-75
2022/03/16 02:00:13;;;;;;;62.35;14.00;;;11.50;75.60;;;;;;5007815;28;20408;-75
2022/03/16 02:02:39;;;;;;;41.85;13.70;;;11.50;75.60;;;;;;4992685;28;20037;-76
2022/03/16 02:05:05;;;;;;;41.95;13.30;;;11.60;75.60;;;;;;4992502;28;20515;-75
2022/03/16 02:07:31;;;;;;;33.63;13.13;;;11.50;75.60;;;;;;4992200;28;20035;-75
2022/03/16 02:10:00;;;;;;;32.58;12.68;;;11.60;75.60;;;;;;4992694;28;20022;-75
2022/03/16 02:12:25;;;;;;;37.28;13.23;;;11.50;75.50;;;;;;4992758;28;20027;-75
2022/03/16 02:14:51;;;;;;;29.10;12.55;;;11.50;75.40;;;;;;5007501;28;20030;-75
2022/03/16 02:17:16;;;;;;;35.45;12.68;;;11.50;75.50;;;;;;5007645;28;20033;-75
2022/03/16 02:19:42;;;;;;;58.42;14.88;;;11.50;75.50;;;;;;4991490;28;20112;-75
2022/03/16 02:22:13;;;;;;;30.15;12.88;;;11.50;75.40;;;;;;4992769;28;20391;-75
2022/03/16 02:24:39;;;;;;;32.42;11.77;;;11.50;75.40;;;;;;4994404;28;20022;-76
2022/03/16 02:27:04;;;;;;;79.80;14.95;;;11.50;75.30;;;;;;5011377;28;20042;-77
2022/03/16 02:29:31;;;;;;;286.33;28.98;;;11.50;75.60;;;;;;4996368;28;20031;-75
2022/03/16 02:31:56;;;;;;;109.35;18.40;;;11.50;76.10;;;;;;4996448;28;20054;-75
2022/03/16 02:34:22;;;;;;;68.20;14.95;;;11.50;76.00;;;;;;4995933;28;20464;-75
2022/03/16 02:36:47;;;;;;;86.82;16.13;;;11.50;75.60;;;;;;4996326;28;20034;-74
2022/03/16 02:39:13;;;;;;;58.10;14.65;;;11.50;75.60;;;;;;4996023;28;20400;-75
2022/03/16 02:41:38;;;;;;;70.75;15.50;;;11.50;75.40;;;;;;4994972;28;20058;-75
2022/03/16 02:44:04;;;;;;;60.45;14.70;;;11.50;75.80;;;;;;5011045;28;20434;-75
2022/03/16 02:46:30;;;;;;;50.83;13.43;;;11.50;75.30;;;;;;5011160;28;20027;-75
2022/03/16 02:48:56;;;;;;;64.97;15.13;;;11.50;75.30;;;;;;4995684;28;20039;-75
2022/03/16 02:51:21;;;;;;;55.53;13.48;;;11.50;75.30;;;;;;4995630;28;20070;-75
2022/03/16 02:53:47;;;;;;;45.80;13.38;;;11.50;75.20;;;;;;4995997;28;20380;-75
2022/03/16 02:56:12;;;;;;;36.35;12.38;;;11.50;75.20;;;;;;4995671;28;20030;-74
2022/03/16 02:58:37;;;;;;;33.17;12.50;;;11.50;75.10;;;;;;4995767;28;20511;-75
2022/03/16 03:01:03;;;;;;;57.40;14.35;;;11.50;75.10;;;;;;4995494;28;20045;-75
2022/03/16 03:03:29;;;;;;;38.85;13.35;;;11.50;75.10;;;;;;5010750;28;20026;-76
2022/03/16 03:05:55;;;;;;;33.55;12.90;;;11.50;75.10;;;;;;4995792;28;20037;-75
2022/03/16 03:08:21;;;;;;;38.40;13.38;;;11.50;75.00;;;;;;4995285;28;20403;-75
2022/03/16 03:10:48;;;;;;;112.65;16.85;;;11.50;75.10;;;;;;4994547;28;20029;-76
2022/03/16 03:13:14;;;;;;;42.50;12.95;;;11.50;75.20;;;;;;5010850;28;20049;-77
2022/03/16 03:15:39;;;;;;;50.97;13.35;;;11.50;75.30;;;;;;5010730;28;20022;-75
2022/03/16 03:18:05;;;;;;;34.92;11.38;;;11.50;75.10;;;;;;5010157;28;20484;-76
2022/03/16 03:20:30;;;;;;;31.67;12.18;;;11.50;75.00;;;;;;5010339;28;20113;-76
2022/03/16 03:22:56;;;;;;;31.08;13.13;;;11.50;74.80;;;;;;4995329;28;20480;-75
2022/03/16 03:25:22;;;;;;;28.35;12.43;;;11.50;74.80;;;;;;5010955;28;20030;-75
2022/03/16 03:27:47;;;;;;;29.58;11.60;;;11.50;74.80;;;;;;5010403;28;20022;-75
2022/03/16 03:30:13;;;;;;;37.92;13.25;;;11.50;74.80;;;;;;4995376;28;20030;-75
2022/03/16 03:32:39;;;;;;;39.00;12.68;;;11.50;74.80;;;;;;5010479;28;20049;-75
2022/03/16 03:35:05;;;;;;;45.00;13.50;;;11.40;74.80;;;;;;5009737;28;20495;-75
2022/03/16 03:37:30;;;;;;;46.28;13.38;;;11.50;75.00;;;;;;4993309;28;20034;-75
2022/03/16 03:39:56;;;;;;;35.78;13.60;;;11.40;75.00;;;;;;4995230;28;20484;-75
2022/03/16 03:42:22;;;;;;;42.05;12.70;;;11.40;74.70;;;;;;4995087;28;20026;-76
2022/03/16 03:44:48;;;;;;;37.38;12.40;;;11.40;74.80;;;;;;5009991;28;20058;-75
2022/03/16 03:47:15;;;;;;;28.65;12.48;;;11.40;74.70;;;;;;4993237;28;20058;-75
2022/03/16 03:49:42;;;;;;;28.05;12.15;;;11.40;74.70;;;;;;4994414;28;20027;-75
2022/03/16 03:52:08;;;;;;;28.27;12.13;;;11.40;74.60;;;;;;5010431;28;20203;-75
2022/03/16 03:54:34;;;;;;;22.85;12.05;;;11.40;74.70;;;;;;5009873;28;20089;-75
2022/03/16 03:57:00;;;;;;;21.50;11.68;;;11.40;74.80;;;;;;4994721;28;20451;-75
2022/03/16 03:59:25;;;;;;;17.27;11.15;;;11.40;74.70;;;;;;4994689;28;20029;-76
2022/03/16 04:01:51;;;;;;;30.33;12.10;;;11.40;74.50;;;;;;4994548;28;22191;-75
2022/03/16 04:04:17;;;;;;;20.38;11.75;;;11.40;74.50;;;;;;4994574;28;20539;-75
2022/03/16 04:06:42;;;;;;;20.00;11.75;;;11.40;74.50;;;;;;5009542;28;20125;-75
2022/03/16 04:09:09;;;;;;;20.73;11.52;;;11.40;74.50;;;;;;5009349;28;20018;-75
2022/03/16 04:11:34;;;;;;;19.13;12.20;;;11.40;74.40;;;;;;4994879;28;20050;-75
2022/03/16 04:14:00;;;;;;;20.38;11.75;;;11.40;74.40;;;;;;5009616;28;20058;-75
2022/03/16 04:16:26;;;;;;;20.88;11.18;;;11.40;74.40;;;;;;5009906;28;20506;-75
2022/03/16 04:18:51;;;;;;;26.10;11.90;;;11.40;74.50;;;;;;5009449;28;20085;-75
2022/03/16 04:21:17;;;;;;;23.60;11.73;;;11.40;74.60;;;;;;4994167;28;20045;-76
2022/03/16 04:23:43;;;;;;;17.90;11.90;;;11.40;74.50;;;;;;4994224;28;20022;-75
2022/03/16 04:26:08;;;;;;;18.52;11.38;;;11.30;74.50;;;;;;4994245;28;20022;-75
2022/03/16 04:28:34;;;;;;;16.83;11.35;;;11.40;74.50;;;;;;4992855;28;20030;-75
2022/03/16 04:31:00;;;;;;;16.98;11.73;;;11.40;74.50;;;;;;4993999;28;20030;-74
2022/03/16 04:33:26;;;;;;;17.83;10.98;;;11.40;74.60;;;;;;4993760;28;20026;-75
2022/03/16 04:35:52;;;;;;;20.15;11.98;;;11.40;74.50;;;;;;4993894;28;20478;-76
2022/03/16 04:38:18;;;;;;;18.77;11.65;;;11.40;74.70;;;;;;5008836;28;20030;-75
2022/03/16 04:40:43;;;;;;;17.10;12.25;;;11.40;74.70;;;;;;4992663;28;20491;-74
2022/03/16 04:43:09;;;;;;;19.23;10.75;;;11.40;74.60;;;;;;5009036;28;20027;-75
2022/03/16 04:45:37;;;;;;;16.48;10.77;;;11.50;74.80;;;;;;4992414;28;20109;-75
2022/03/16 04:48:03;;;;;;;17.75;11.10;;;11.40;74.70;;;;;;5007723;28;20030;-75
2022/03/16 04:50:28;;;;;;;17.58;11.55;;;11.40;74.70;;;;;;5008813;28;20022;-75
2022/03/16 04:52:54;;;;;;;18.05;11.32;;;11.30;74.50;;;;;;4994053;28;20565;-75
2022/03/16 04:55:19;;;;;;;16.83;11.10;;;11.40;74.60;;;;;;4992258;28;20113;-75
2022/03/16 04:57:45;;;;;;;15.98;11.88;;;11.40;74.50;;;;;;4993456;28;20484;-76
2022/03/16 05:00:11;;;;;;;16.05;10.80;;;11.40;74.50;;;;;;4993285;28;20050;-75
2022/03/16 05:02:37;;;;;;;14.82;10.98;;;11.40;74.60;;;;;;4993088;28;20030;-75
2022/03/16 05:05:03;;;;;;;17.10;10.98;;;11.40;74.60;;;;;;5008517;28;20161;-75
2022/03/16 05:07:29;;;;;;;15.68;10.80;;;11.40;74.60;;;;;;4993036;28;20117;-76
2022/03/16 05:09:54;;;;;;;15.60;11.38;;;11.40;74.60;;;;;;4992341;28;20112;-74
2022/03/16 05:12:20;;;;;;;17.13;11.25;;;11.40;74.50;;;;;;4993259;28;20033;-75
2022/03/16 05:14:45;;;;;;;14.40;10.65;;;11.40;74.50;;;;;;5008357;28;20022;-75
2022/03/16 05:17:11;;;;;;;15.95;11.38;;;11.40;74.50;;;;;;4992696;28;20113;-75
2022/03/16 05:19:36;;;;;;;15.75;11.32;;;11.40;74.50;;;;;;4993057;28;20506;-76
2022/03/16 05:22:02;;;;;;;18.92;11.45;;;11.40;74.30;;;;;;4992423;28;20054;-76
2022/03/16 05:24:27;;;;;;;16.50;11.23;;;11.40;74.30;;;;;;4992349;28;20092;-75
2022/03/16 05:26:53;;;;;;;14.88;11.73;;;11.40;74.30;;;;;;5007415;28;20022;-77
2022/03/16 05:29:19;;;;;;;13.98;10.77;;;11.40;74.20;;;;;;5000729;28;20030;-75
2022/03/16 05:31:45;;;;;;;14.40;11.20;;;11.40;74.20;;;;;;5005376;28;20032;-75
2022/03/16 05:34:10;;;;;;;14.82;11.90;;;11.40;74.10;;;;;;5002910;28;20038;-74
2022/03/16 05:36:36;;;;;;;15.27;11.68;;;11.40;74.10;;;;;;5007289;28;20462;-76
2022/03/16 05:39:06;;;;;;;15.50;11.43;;;11.40;74.00;;;;;;5006422;28;20026;-77
2022/03/16 05:41:31;;;;;;;15.25;11.60;;;11.40;74.00;;;;;;4998044;28;20117;-76
2022/03/16 05:43:57;;;;;;;16.15;11.73;;;11.40;74.00;;;;;;5005774;28;20126;-74
2022/03/16 05:46:23;;;;;;;17.48;11.65;;;11.30;73.80;;;;;;4987973;28;20041;-76
2022/03/16 05:48:48;;;;;;;16.27;11.98;;;11.30;73.90;;;;;;4989596;28;20499;-76
2022/03/16 05:51:14;;;;;;;14.70;11.60;;;11.40;74.00;;;;;;4975116;28;20023;-77
2022/03/16 05:53:39;;;;;;;14.55;11.15;;;11.40;73.80;;;;;;4987655;28;20691;-75
2022/03/16 05:56:05;;;;;;;15.50;11.57;;;11.30;73.70;;;;;;4989585;28;20034;-76
2022/03/16 05:58:31;;;;;;;15.32;11.52;;;11.40;74.30;;;;;;4988306;28;20590;-73
2022/03/16 06:00:56;;;;;;;14.90;11.27;;;11.40;73.80;;;;;;4990085;28;20385;-76
2022/03/16 06:03:22;;;;;;;15.55;12.07;;;11.40;73.70;;;;;;4989801;28;20036;-75
2022/03/16 06:05:47;;;;;;;14.88;11.40;;;11.40;73.60;;;;;;4998190;28;20031;-74
2022/03/16 06:08:13;;;;;;;14.50;11.40;;;11.40;73.60;;;;;;4975411;28;20026;-74
2022/03/16 06:10:39;;;;;;;14.38;11.20;;;11.40;73.60;;;;;;4990420;28;20019;-75
2022/03/16 06:13:05;;;;;;;15.77;11.43;;;11.40;73.60;;;;;;4989634;28;20089;-75
2022/03/16 06:15:38;;;;;;;21.33;11.55;;;11.40;73.50;;;;;;4976523;28;20026;-74
2022/03/16 06:18:04;;;;;;;23.05;11.70;;;11.40;73.60;;;;;;4983768;28;20028;-74
2022/03/16 06:20:30;;;;;;;21.98;12.02;;;11.30;73.50;;;;;;4988917;28;20038;-74
2022/03/16 06:22:55;;;;;;;22.55;12.70;;;11.40;73.40;;;;;;4986455;28;20027;-75
2022/03/16 06:25:24;;;;;;;26.35;13.95;;;11.40;73.30;;;;;;5002103;28;20096;-73
2022/03/16 06:27:50;;;;;;;29.70;15.20;;;11.40;73.20;;;;;;5002003;28;20022;-77
2022/03/16 06:30:15;;;;;;;20.27;14.57;;;11.40;73.20;;;;;;4988191;28;20094;-74
2022/03/16 06:32:44;;;;;;;22.95;15.10;;;11.40;72.90;;;;;;4986853;28;20487;-73
2022/03/16 06:35:10;;;;;;;26.13;15.82;;;11.50;73.20;;;;;;5002931;28;20030;-73
2022/03/16 06:37:36;;;;;;;21.83;15.02;;;11.50;73.30;;;;;;5002763;28;20064;-74
2022/03/16 06:40:02;;;;;;;21.52;15.00;;;11.50;73.40;;;;;;5002644;28;20042;-74
2022/03/16 06:42:27;;;;;;;20.40;13.75;;;11.40;73.20;;;;;;5003032;28;20026;-75
2022/03/16 06:44:53;;;;;;;23.15;15.18;;;11.50;73.20;;;;;;5000113;28;20077;-74
2022/03/16 06:47:18;;;;;;;21.08;14.27;;;11.50;73.10;;;;;;4989276;28;20121;-74
2022/03/16 06:49:45;;;;;;;20.45;13.93;;;11.50;73.10;;;;;;4987720;28;20109;-74
2022/03/16 06:52:11;;;;;;;21.13;13.85;;;11.50;73.10;;;;;;4987797;28;20027;-76
2022/03/16 06:54:36;;;;;;;18.38;12.90;;;11.50;73.10;;;;;;4988115;28;20035;-73
2022/03/16 06:57:02;;;;;;;18.23;13.57;;;11.60;73.20;;;;;;4988405;28;20027;-74
2022/03/16 06:59:27;;;;;;;16.80;13.60;;;11.50;73.10;;;;;;4985435;28;20411;-75
2022/03/16 07:01:53;;;;;;;19.02;14.23;;;11.70;73.20;;;;;;4984108;28;20046;-74
2022/03/16 07:04:18;;;;;;;18.45;12.93;;;11.60;73.20;;;;;;4982989;28;20030;-74
2022/03/16 07:06:44;;;;;;;18.58;13.55;;;11.60;73.30;;;;;;4984303;28;20081;-73
2022/03/16 07:09:09;;;;;;;17.17;13.07;;;11.70;73.30;;;;;;4983733;28;20038;-73
2022/03/16 07:11:35;;;;;;;17.45;12.65;;;11.70;73.40;;;;;;4985938;28;20022;-73
2022/03/16 07:16:44;;;;;;;16.85;12.63;;;11.80;73.30;;;;;;4989030;28;20558;-75
2022/03/16 07:19:10;;;;;;;16.60;13.00;;;11.80;73.30;;;;;;4987215;28;20030;-74
2022/03/16 07:21:35;;;;;;;21.70;13.25;;;11.80;73.20;;;;;;4987732;28;20112;-74
2022/03/16 07:24:01;;;;;;;14.43;12.07;;;11.90;73.20;;;;;;4987456;28;20486;-73
2022/03/16 07:26:27;;;;;;;16.52;12.75;;;11.90;73.10;;;;;;4987305;28;20057;-75
2022/03/16 07:28:53;;;;;;;18.05;12.95;;;12.00;73.10;;;;;;4986891;28;20031;-74
2022/03/16 07:31:19;;;;;;;17.30;13.13;;;11.90;73.00;;;;;;4987258;28;20032;-74
2022/03/16 07:33:44;;;;;;;17.60;12.85;;;12.00;73.00;;;;;;4986988;28;20510;-74
2022/03/16 07:36:10;;;;;;;15.45;11.95;;;12.00;73.10;;;;;;4988500;28;20053;-73
2022/03/16 07:38:36;;;;;;;15.45;11.82;;;12.00;72.80;;;;;;4986943;28;20026;-75
2022/03/16 07:41:02;;;;;;;14.32;12.05;;;12.10;72.80;;;;;;4986742;28;20492;-74
2022/03/16 07:43:29;;;;;;;15.52;11.90;;;12.10;72.80;;;;;;4987496;28;20484;-73
2022/03/16 07:45:54;;;;;;;17.55;12.18;;;12.10;72.80;;;;;;4986650;28;20117;-75
2022/03/16 07:48:20;;;;;;;16.13;12.45;;;12.00;72.80;;;;;;4986837;28;20894;-74
2022/03/16 07:50:45;;;;;;;14.88;12.07;;;12.00;72.90;;;;;;4986807;28;20034;-72
2022/03/16 07:53:11;;;;;;;18.58;12.32;;;12.00;73.00;;;;;;4986965;28;20511;-73
2022/03/16 07:55:37;;;;;;;16.13;12.40;;;12.00;73.00;;;;;;4987994;28;20387;-75
2022/03/16 07:58:02;;;;;;;16.90;12.60;;;12.00;73.00;;;;;;4986601;28;20542;-74
2022/03/16 08:00:28;;;;;;;16.63;11.93;;;12.00;73.10;;;;;;4986363;28;20125;-75
2022/03/16 08:02:54;;;;;;;16.40;12.30;;;12.00;73.10;;;;;;4986875;28;20420;-74
2022/03/16 08:05:21;;;;;;;17.40;12.25;;;12.00;73.20;;;;;;4986595;28;20444;-73
2022/03/16 08:07:47;;;;;;;15.70;12.07;;;12.00;73.20;;;;;;4986329;28;20034;-74
2022/03/16 08:10:12;;;;;;;15.88;12.07;;;12.00;73.20;;;;;;4988014;28;20537;-76
2022/03/16 08:12:38;;;;;;;17.20;12.55;;;12.00;73.20;;;;;;4986754;28;20479;-74
2022/03/16 08:15:06;;;;;;;15.48;12.60;;;12.00;73.30;;;;;;4986706;28;20272;-74
2022/03/16 08:17:32;;;;;;;14.63;11.68;;;12.00;73.30;;;;;;4986509;28;20034;-75
2022/03/16 08:19:57;;;;;;;16.88;12.52;;;12.00;73.30;;;;;;4986149;28;20292;-74
2022/03/16 08:22:31;;;;;;;15.27;11.80;;;12.00;73.30;;;;;;4986357;28;20090;-74
2022/03/16 08:24:59;;;;;;;15.70;12.30;;;11.90;73.40;;;;;;4986252;28;20487;-75
2022/03/16 08:27:25;;;;;;;15.20;12.15;;;12.00;73.50;;;;;;4986094;28;20034;-74
2022/03/16 08:29:51;;;;;;;15.65;12.68;;;12.00;73.60;;;;;;4986043;28;20042;-72
2022/03/16 08:32:18;;;;;;;16.80;12.98;;;12.00;73.70;;;;;;4986156;28;20030;-74
2022/03/16 08:34:45;;;;;;;15.85;12.77;;;12.00;73.70;;;;;;4985763;28;20038;-72
2022/03/16 08:37:10;;;;;;;15.75;12.43;;;11.90;73.60;;;;;;4985799;28;20030;-75
2022/03/16 08:39:40;;;;;;;15.88;11.82;;;12.00;73.70;;;;;;4986031;28;20025;-75
2022/03/16 08:42:07;;;;;;;16.23;12.02;;;12.00;73.60;;;;;;4985517;28;20031;-73
2022/03/16 08:44:33;;;;;;;15.02;12.25;;;12.10;73.60;;;;;;4986039;28;20026;-74
2022/03/16 08:46:58;;;;;;;16.08;12.57;;;12.10;73.40;;;;;;4985524;28;20510;-75
2022/03/16 08:49:24;;;;;;;16.73;12.35;;;12.20;73.20;;;;;;4985809;28;20054;-74
2022/03/16 08:51:50;;;;;;;15.52;12.50;;;12.20;73.10;;;;;;4985514;28;20030;-73
2022/03/16 08:54:16;;;;;;;16.05;12.45;;;12.20;73.00;;;;;;4985811;28;20461;-74
2022/03/16 08:56:43;;;;;;;15.73;12.10;;;12.30;73.00;;;;;;4985622;28;20038;-74
2022/03/16 08:59:09;;;;;;;15.15;11.77;;;12.30;72.90;;;;;;4986810;28;20026;-73
2022/03/16 09:01:35;;;;;;;14.35;11.45;;;12.30;72.80;;;;;;4985603;28;20484;-74
2022/03/16 09:04:02;;;;;;;15.65;11.85;;;12.30;72.70;;;;;;4985335;28;20070;-74
2022/03/16 09:06:27;;;;;;;15.82;12.10;;;12.30;72.70;;;;;;4985642;28;20036;-74
2022/03/16 09:08:53;;;;;;;16.33;12.20;;;12.30;72.60;;;;;;4985182;28;20444;-76
2022/03/16 09:11:19;;;;;;;15.40;12.23;;;12.40;72.50;;;;;;4985386;28;20022;-74
2022/03/16 09:13:44;;;;;;;16.63;12.63;;;12.40;72.40;;;;;;4985404;28;20027;-74
2022/03/16 09:16:10;;;;;;;16.63;11.52;;;12.50;72.40;;;;;;4985045;28;20023;-74
2022/03/16 09:18:35;;;;;;;15.13;11.88;;;12.50;72.30;;;;;;4985300;28;20081;-74
2022/03/16 09:21:01;;;;;;;14.60;12.00;;;12.50;72.10;;;;;;4985153;28;20301;-74
2022/03/16 09:23:31;;;;;;;15.45;12.35;;;12.60;72.10;;;;;;4985257;28;20038;-73
2022/03/16 09:26:01;;;;;;;15.85;12.07;;;12.50;72.00;;;;;;4985076;28;20492;-74
2022/03/16 09:28:27;;;;;;;14.90;11.63;;;12.60;72.00;;;;;;4984898;28;20508;-74
2022/03/16 09:30:53;;;;;;;15.93;12.13;;;12.50;71.90;;;;;;4985061;28;20112;-76
2022/03/16 09:33:21;;;;;;;15.40;11.60;;;12.60;71.90;;;;;;4984698;28;20369;-75
2022/03/16 09:35:48;;;;;;;15.32;11.68;;;12.60;71.90;;;;;;4984653;28;20275;-74
2022/03/16 09:38:15;;;;;;;13.98;11.35;;;12.60;71.90;;;;;;4984928;28;20392;-74
2022/03/16 09:40:42;;;;;;;14.95;11.10;;;12.60;71.90;;;;;;4984680;28;20052;-74
2022/03/16 09:43:08;;;;;;;16.38;12.40;;;12.60;71.80;;;;;;4984998;28;20041;-76
2022/03/16 09:45:46;;;;;;;15.40;11.75;;;12.70;71.90;;;;;;4984872;28;20041;-75
2022/03/16 09:48:13;;;;;;;14.60;11.27;;;12.70;71.80;;;;;;4982967;28;20429;-74
2022/03/16 09:50:41;;;;;;;15.68;11.30;;;12.70;71.90;;;;;;4984093;28;20030;-74
2022/03/16 09:53:08;;;;;;;14.05;10.88;;;12.70;71.70;;;;;;4984709;28;20080;-74
2022/03/16 09:55:34;;;;;;;14.88;11.13;;;12.70;71.70;;;;;;4984666;28;20030;-74
2022/03/16 09:57:59;;;;;;;15.85;11.50;;;12.70;71.70;;;;;;4984627;28;20037;-74
2022/03/16 10:00:25;;;;;;;14.25;10.80;;;12.70;71.70;;;;;;4984439;28;20096;-74
2022/03/16 10:02:52;;;;;;;14.77;10.95;;;12.70;71.60;;;;;;4984663;28;20093;-75
2022/03/16 10:05:19;;;;;;;14.15;11.20;;;12.80;71.60;;;;;;4984548;28;20034;-74
2022/03/16 10:07:45;;;;;;;15.02;11.60;;;12.80;72.00;;;;;;4984598;28;20173;-75
2022/03/16 10:13:13;;;;;;;15.25;11.13;;;12.80;71.40;;;;;;4986155;28;20064;-74
2022/03/16 10:15:39;;;;;;;15.50;11.27;;;12.90;71.40;;;;;;4984319;28;20034;-73
2022/03/16 10:18:05;;;;;;;15.02;10.85;;;12.90;71.30;;;;;;4984475;28;20398;-73
2022/03/16 10:20:33;;;;;;;15.25;10.88;;;12.90;71.30;;;;;;4984531;28;20774;-74
2022/03/16 10:23:06;;;;;;;15.30;11.65;;;12.90;71.20;;;;;;4984472;28;20027;-74
2022/03/16 10:25:52;;;;;;;13.68;10.57;;;12.90;71.20;;;;;;4984513;28;20045;-75
2022/03/16 10:28:26;;;;;;;13.90;10.70;;;12.90;71.10;;;;;;4984444;28;20026;-75
2022/03/16 10:30:59;;;;;;;15.52;11.05;;;13.00;71.10;;;;;;4984223;28;20037;-74
2022/03/16 10:33:31;;;;;;;13.85;10.30;;;12.90;71.10;;;;;;4984416;28;20109;-72
2022/03/16 10:36:05;;;;;;;15.00;11.05;;;12.90;71.00;;;;;;4984367;28;20094;-74
2022/03/16 10:38:40;;;;;;;14.43;10.60;;;13.00;71.00;;;;;;4984584;28;20058;-75
2022/03/16 10:41:14;;;;;;;14.15;10.57;;;13.00;70.90;;;;;;4984290;28;20026;-74
2022/03/16 10:46:40;;;;;;;15.13;10.65;;;13.00;71.00;;;;;;4987483;28;20100;-74
2022/03/16 10:49:10;;;;;;;13.63;10.85;;;13.00;71.00;;;;;;4987956;28;20034;-74
2022/03/16 10:51:37;;;;;;;15.35;10.82;;;13.00;71.00;;;;;;4987916;28;20038;-72
2022/03/16 10:54:05;;;;;;;14.50;10.68;;;13.00;71.00;;;;;;4987802;28;20038;-75
2022/03/16 10:56:31;;;;;;;14.80;10.52;;;13.10;71.00;;;;;;4987899;28;20050;-74
2022/03/16 10:58:58;;;;;;;14.13;10.40;;;13.00;71.00;;;;;;4987500;28;20030;-73
2022/03/16 11:01:28;;;;;;;13.73;10.27;;;13.00;70.90;;;;;;4987934;28;20038;-74
2022/03/16 11:03:58;;;;;;;14.50;10.30;;;13.10;70.90;;;;;;4987735;28;20502;-74
2022/03/16 11:06:24;;;;;;;13.82;10.07;;;13.10;70.90;;;;;;4987846;28;20026;-74
2022/03/16 11:08:51;;;;;;;16.10;10.98;;;13.10;70.90;;;;;;4987298;28;20077;-73
2022/03/16 11:14:03;;;;;;;13.73;10.40;;;13.10;70.90;;;;;;4989066;28;20041;-76
2022/03/16 11:16:32;;;;;;;15.20;10.88;;;13.10;70.90;;;;;;4987715;28;20030;-75
2022/03/16 11:19:01;;;;;;;15.70;10.07;;;13.10;70.90;;;;;;4987275;28;20037;-75
2022/03/16 11:21:38;;;;;;;14.27;10.23;;;13.10;70.90;;;;;;4987281;28;20084;-75
2022/03/16 11:24:16;;;;;;;15.18;10.57;;;13.10;70.80;;;;;;4988551;28;20282;-74
2022/03/16 11:27:23;;;;;;;16.45;10.77;;;13.10;70.90;;;;;;4987711;28;20034;-76
2022/03/16 11:30:00;;;;;;;15.20;9.95;;;13.10;70.80;;;;;;4987627;28;20030;-75
2022/03/16 11:32:34;;;;;;;14.35;10.32;;;13.10;70.90;;;;;;4987354;28;20023;-74
2022/03/16 11:35:00;;;;;;;15.15;10.68;;;13.10;70.90;;;;;;4987180;28;20034;-74
2022/03/16 11:37:34;;;;;;;15.25;10.38;;;13.10;70.90;;;;;;4987012;28;20503;-75
2022/03/16 11:40:09;;;;;;;13.85;10.10;;;13.10;70.90;;;;;;4987104;28;20084;-74
2022/03/16 11:42:36;;;;;;;14.27;9.82;;;13.10;70.90;;;;;;4987471;28;20041;-74
2022/03/16 11:45:41;;;;;;;14.52;10.52;;;13.00;71.00;;;;;;4986940;28;20038;-74
2022/03/16 11:48:32;;;;;;;13.77;10.30;;;13.10;71.10;;;;;;4986583;28;20396;-73
2022/03/16 11:51:13;;;;;;;15.40;10.02;;;13.00;71.20;;;;;;4986888;28;20026;-75
2022/03/16 11:56:29;;;;;;;14.43;9.70;;;12.90;71.30;;;;;;4988360;28;20033;-75
2022/03/16 11:59:23;;;;;;;12.98;9.77;;;13.00;71.60;;;;;;4986640;28;20265;-75
2022/03/16 12:01:52;;;;;;;14.73;9.68;;;12.90;71.60;;;;;;4973532;28;20393;-76
2022/03/16 12:04:50;;;;;;;14.93;10.35;;;12.90;71.70;;;;;;4986656;28;20030;-74
2022/03/16 12:07:21;;;;;;;13.40;9.48;;;12.90;71.70;;;;;;4985782;28;20313;-73
2022/03/16 12:09:54;;;;;;;13.77;9.55;;;12.90;71.70;;;;;;4986509;28;20030;-74
2022/03/16 12:12:54;;;;;;;13.95;9.65;;;12.90;71.70;;;;;;4986765;28;20072;-74
2022/03/16 12:15:37;;;;;;;;;;;12.90;71.70;;;;;;4987198;28;20033;-74
2022/03/16 12:18:07;;;;;;;13.93;9.63;;;12.90;71.60;;;;;;5002791;28;19909;-75
2022/03/16 12:20:36;;;;;;;15.35;9.70;;;13.00;71.60;;;;;;4986894;28;20034;-75
2022/03/16 12:23:09;;;;;;;12.73;9.15;;;13.00;71.70;;;;;;4986454;28;20037;-75
2022/03/16 12:25:40;;;;;;;14.60;9.70;;;13.00;71.70;;;;;;4986280;28;20465;-75
2022/03/16 12:30:54;;;;;;;13.23;9.35;;;13.00;71.60;;;;;;4987864;28;20049;-76
2022/03/16 12:33:22;;;;;;;14.02;9.68;;;13.00;71.50;;;;;;4986265;28;20033;-75
2022/03/16 12:36:00;;;;;;;13.10;9.85;;;13.00;71.50;;;;;;4985976;28;20404;-75
2022/03/16 12:38:29;;;;;;;14.23;9.95;;;13.00;71.40;;;;;;4986233;28;20026;-74
2022/03/16 12:43:48;;;;;;;14.05;9.48;;;13.00;71.40;;;;;;4987575;28;20073;-75
2022/03/16 12:46:25;;;;;;;14.00;10.05;;;13.10;71.50;;;;;;4986177;28;20030;-74
2022/03/16 12:48:56;;;;;;;13.52;9.63;;;13.10;71.50;;;;;;4986931;28;20411;-75
2022/03/16 12:51:40;;;;;;;13.77;9.85;;;13.00;71.50;;;;;;4985973;28;20035;-74
2022/03/16 12:54:07;;;;;;;13.25;9.20;;;13.00;72.10;;;;;;4985711;28;20125;-74